createdAt,value
2019-06-27T00:02:07.624Z,16.80
2019-06-27T00:04:37.448Z,16.80
2019-06-27T00:07:07.444Z,16.80
2019-06-27T00:09:37.479Z,16.70
2019-06-27T00:12:07.385Z,16.70
2019-06-27T00:14:37.271Z,16.60
2019-06-27T00:17:06.920Z,16.60
2019-06-27T00:19:36.582Z,16.40
2019-06-27T00:22:06.638Z,16.30
2019-06-27T00:24:36.536Z,16.30
2019-06-27T00:27:06.278Z,16.30
2019-06-27T00:29:36.068Z,16.20
2019-06-27T00:32:05.681Z,16.10
2019-06-27T00:34:35.318Z,16.10
2019-06-27T00:37:05.439Z,16.00
2019-06-27T00:39:35.228Z,16.00
2019-06-27T00:42:04.943Z,15.90
2019-06-27T00:44:34.549Z,15.90
2019-06-27T00:47:04.466Z,15.80
2019-06-27T00:49:34.475Z,15.80
2019-06-27T00:52:04.583Z,15.70
2019-06-27T00:54:34.415Z,15.70
2019-06-27T00:57:13.949Z,15.70
2019-06-27T00:59:36.014Z,15.70
2019-06-27T01:02:05.905Z,15.60
2019-06-27T01:04:35.934Z,15.50
2019-06-27T01:07:06.049Z,15.50
2019-06-27T01:09:35.757Z,15.50
2019-06-27T01:12:06.060Z,15.50
2019-06-27T01:14:36.311Z,15.50
2019-06-27T01:17:06.397Z,15.40
2019-06-27T01:19:36.538Z,15.40
2019-06-27T01:22:06.176Z,15.30
2019-06-27T01:24:36.011Z,15.30
2019-06-27T01:27:06.032Z,15.30
2019-06-27T01:29:35.972Z,15.30
2019-06-27T01:32:06.019Z,15.30
2019-06-27T01:34:36.013Z,15.30
2019-06-27T01:37:05.715Z,15.30
2019-06-27T01:39:35.624Z,15.30
2019-06-27T01:42:05.786Z,15.30
2019-06-27T01:44:57.841Z,15.30
2019-06-27T01:47:28.042Z,15.30
2019-06-27T01:49:58.078Z,15.20
2019-06-27T01:52:27.956Z,15.20
2019-06-27T01:54:57.980Z,15.10
2019-06-27T01:57:27.867Z,15.20
2019-06-27T01:59:57.707Z,15.20
2019-06-27T02:02:27.629Z,15.20
2019-06-27T02:04:57.742Z,15.20
2019-06-27T02:07:27.571Z,15.10
2019-06-27T02:09:57.652Z,15.10
2019-06-27T02:12:27.262Z,15.10
2019-06-27T02:14:57.197Z,15.20
2019-06-27T02:17:26.806Z,15.10
2019-06-27T02:19:56.857Z,15.10
2019-06-27T02:22:26.490Z,15.10
2019-06-27T02:24:56.620Z,15.00
2019-06-27T02:27:26.761Z,14.90
2019-06-27T02:29:56.560Z,14.90
2019-06-27T02:32:26.574Z,14.90
2019-06-27T02:34:56.401Z,14.80
2019-06-27T02:37:26.429Z,14.80
2019-06-27T02:39:56.327Z,14.80
2019-06-27T02:42:26.372Z,14.70
2019-06-27T02:44:56.258Z,14.80
2019-06-27T02:47:26.188Z,14.80
2019-06-27T02:49:56.815Z,14.70
2019-06-27T02:52:26.413Z,14.70
2019-06-27T02:54:56.384Z,14.50
2019-06-27T02:57:26.358Z,14.60
2019-06-27T02:59:56.313Z,14.50
2019-06-27T03:02:26.091Z,14.50
2019-06-27T03:04:55.884Z,14.50
2019-06-27T03:07:25.829Z,14.50
2019-06-27T03:09:55.939Z,14.40
2019-06-27T03:12:25.947Z,14.40
2019-06-27T03:14:55.985Z,14.40
2019-06-27T03:17:25.585Z,14.50
2019-06-27T03:19:55.680Z,14.40
2019-06-27T03:22:25.303Z,14.40
2019-06-27T03:24:55.313Z,14.40
2019-06-27T03:27:24.959Z,14.50
2019-06-27T03:29:54.767Z,14.40
2019-06-27T03:32:24.405Z,14.50
2019-06-27T03:34:54.377Z,14.50
2019-06-27T03:37:23.949Z,14.50
2019-06-27T03:39:53.587Z,14.70
2019-06-27T03:42:23.491Z,14.70
2019-06-27T03:44:53.196Z,14.70
2019-06-27T03:47:23.119Z,14.60
2019-06-27T03:49:53.141Z,14.50
2019-06-27T03:52:23.269Z,14.70
2019-06-27T03:54:53.175Z,14.70
2019-06-27T03:57:23.009Z,14.60
2019-06-27T03:59:52.874Z,14.70
2019-06-27T04:02:22.741Z,14.70
2019-06-27T04:04:52.688Z,14.80
2019-06-27T04:07:22.649Z,14.90
2019-06-27T04:09:52.762Z,14.90
2019-06-27T04:12:23.014Z,14.90
2019-06-27T04:14:53.002Z,14.90
2019-06-27T04:17:22.846Z,15.10
2019-06-27T04:19:52.943Z,15.10
2019-06-27T04:22:22.851Z,15.10
2019-06-27T04:24:52.541Z,15.20
2019-06-27T04:27:22.498Z,15.10
2019-06-27T04:29:52.106Z,15.30
2019-06-27T04:32:21.984Z,15.40
2019-06-27T04:34:52.102Z,15.40
2019-06-27T04:37:21.942Z,15.30
2019-06-27T04:39:51.983Z,15.40
2019-06-27T04:42:21.988Z,15.50
2019-06-27T04:44:51.771Z,15.50
2019-06-27T04:47:21.898Z,15.60
2019-06-27T04:49:51.964Z,15.60
2019-06-27T04:52:21.708Z,15.60
2019-06-27T04:54:51.328Z,15.60
2019-06-27T04:57:21.145Z,15.60
2019-06-27T04:59:53.975Z,15.50
2019-06-27T05:02:22.544Z,15.50
2019-06-27T05:04:52.363Z,15.60
2019-06-27T05:07:22.349Z,15.70
2019-06-27T05:09:52.368Z,15.90
2019-06-27T05:12:21.992Z,15.90
2019-06-27T05:14:51.761Z,15.90
2019-06-27T05:17:21.494Z,16.10
2019-06-27T05:19:51.645Z,16.20
2019-06-27T05:22:21.635Z,16.40
2019-06-27T05:24:51.429Z,16.60
2019-06-27T05:27:21.065Z,16.60
2019-06-27T05:29:51.001Z,16.60
2019-06-27T05:32:20.968Z,16.60
2019-06-27T05:34:50.734Z,16.70
2019-06-27T05:37:20.624Z,16.60
2019-06-27T05:39:50.613Z,16.80
2019-06-27T05:42:21.183Z,17.00
2019-06-27T05:44:50.794Z,17.00
2019-06-27T05:47:20.492Z,17.00
2019-06-27T05:49:50.347Z,17.00
2019-06-27T05:52:20.312Z,17.00
2019-06-27T05:54:50.016Z,17.10
2019-06-27T05:57:20.125Z,16.90
2019-06-27T05:59:49.931Z,17.00
2019-06-27T06:02:19.908Z,17.10
2019-06-27T06:04:49.526Z,17.10
2019-06-27T06:07:19.119Z,17.20
2019-06-27T06:09:48.738Z,17.30
2019-06-27T06:12:18.351Z,17.40
2019-06-27T06:14:47.974Z,17.50
2019-06-27T06:17:17.579Z,17.40
2019-06-27T06:19:47.179Z,17.30
2019-06-27T06:22:16.800Z,17.30
2019-06-27T06:24:46.415Z,17.50
2019-06-27T06:27:35.034Z,17.60
2019-06-27T06:30:05.124Z,17.80
2019-06-27T06:32:34.820Z,17.80
2019-06-27T06:35:04.619Z,17.90
2019-06-27T06:37:34.452Z,18.10
2019-06-27T06:40:04.171Z,18.10
2019-06-27T06:42:33.766Z,17.80
2019-06-27T06:45:03.473Z,17.90
2019-06-27T06:47:33.050Z,18.00
2019-06-27T06:50:02.737Z,17.90
2019-06-27T06:52:32.438Z,17.70
2019-06-27T06:55:02.075Z,17.80
2019-06-27T06:57:31.698Z,17.80
2019-06-27T07:00:01.378Z,17.50
2019-06-27T07:02:30.985Z,17.60
2019-06-27T07:05:00.619Z,17.70
2019-06-27T07:07:30.664Z,17.90
2019-06-27T07:10:00.302Z,18.10
2019-06-27T07:12:29.923Z,18.30
2019-06-27T07:14:59.536Z,18.30
2019-06-27T07:17:29.151Z,18.20
2019-06-27T07:19:58.750Z,17.90
2019-06-27T07:22:32.618Z,18.00
2019-06-27T07:25:02.328Z,17.90
2019-06-27T07:27:31.998Z,18.20
2019-06-27T07:30:01.633Z,18.30
2019-06-27T07:32:31.272Z,18.50
2019-06-27T07:35:01.037Z,18.90
2019-06-27T07:37:30.634Z,18.90
2019-06-27T07:40:00.312Z,18.90
2019-06-27T07:42:29.908Z,18.70
2019-06-27T07:44:59.556Z,18.60
2019-06-27T07:47:29.161Z,18.50
2019-06-27T07:49:58.888Z,18.30
2019-06-27T07:52:28.834Z,18.50
2019-06-27T07:54:59.120Z,18.60
2019-06-27T07:57:33.416Z,18.80
2019-06-27T08:00:03.289Z,19.00
2019-06-27T08:02:33.447Z,19.20
2019-06-27T08:05:03.169Z,19.30
2019-06-27T08:07:32.872Z,19.50
2019-06-27T08:10:10.710Z,19.30
2019-06-27T08:12:42.391Z,19.20
2019-06-27T08:15:11.947Z,19.40
2019-06-27T08:17:43.271Z,19.70
2019-06-27T08:20:13.469Z,19.90
2019-06-27T08:22:43.482Z,20.20
2019-06-27T08:25:13.302Z,20.70
2019-06-27T08:27:43.219Z,20.80
2019-06-27T08:30:16.422Z,21.20
2019-06-27T08:32:53.372Z,21.10
2019-06-27T08:35:23.410Z,20.90
2019-06-27T08:37:53.393Z,21.10
2019-06-27T08:40:24.266Z,21.30
2019-06-27T08:42:54.383Z,21.70
2019-06-27T08:45:24.491Z,22.10
2019-06-27T08:47:54.502Z,22.40
2019-06-27T08:50:24.436Z,22.10
2019-06-27T08:52:54.542Z,22.10
2019-06-27T08:55:27.547Z,22.20
2019-06-27T08:58:00.025Z,22.40
2019-06-27T09:00:32.690Z,22.60
2019-06-27T09:03:02.513Z,22.60
2019-06-27T09:05:32.658Z,23.00
2019-06-27T09:08:02.530Z,22.90
2019-06-27T09:10:35.324Z,22.50
2019-06-27T09:13:08.188Z,22.10
2019-06-27T09:15:38.199Z,21.80
2019-06-27T09:18:07.834Z,21.40
2019-06-27T09:20:37.755Z,21.30
2019-06-27T09:23:07.423Z,21.60
2019-06-27T09:25:39.516Z,21.90
2019-06-27T09:28:11.794Z,22.30
2019-06-27T09:30:41.754Z,23.00
2019-06-27T09:33:11.719Z,23.20
2019-06-27T09:35:44.641Z,23.30
2019-06-27T09:38:14.428Z,23.10
2019-06-27T09:40:44.446Z,23.20
2019-06-27T09:43:14.233Z,23.40
2019-06-27T09:45:44.356Z,23.90
2019-06-27T09:48:14.456Z,24.00
2019-06-27T09:50:44.607Z,24.20
2019-06-27T09:53:14.560Z,24.10
2019-06-27T09:55:47.255Z,24.30
2019-06-27T09:58:15.724Z,24.30
2019-06-27T10:00:45.712Z,24.50
2019-06-27T10:03:15.550Z,24.50
2019-06-27T10:05:45.269Z,24.40
2019-06-27T10:08:15.151Z,24.90
2019-06-27T10:10:45.161Z,25.30
2019-06-27T10:13:15.283Z,25.50
2019-06-27T10:15:45.150Z,25.50
2019-06-27T10:18:15.235Z,25.50
2019-06-27T10:20:45.069Z,25.30
2019-06-27T10:23:15.243Z,25.30
2019-06-27T10:25:47.669Z,25.40
2019-06-27T10:28:17.670Z,25.40
2019-06-27T10:30:49.488Z,25.10
2019-06-27T10:33:19.220Z,25.30
2019-06-27T10:35:49.314Z,25.50
2019-06-27T10:38:18.950Z,26.00
2019-06-27T10:40:48.867Z,26.10
2019-06-27T10:43:21.357Z,25.90
2019-06-27T10:45:51.319Z,25.70
2019-06-27T10:48:21.289Z,26.20
2019-06-27T10:50:54.562Z,26.90
2019-06-27T10:53:23.077Z,26.80
2019-06-27T10:55:53.058Z,26.70
2019-06-27T10:58:23.113Z,26.90
2019-06-27T11:00:53.083Z,26.70
2019-06-27T11:03:26.320Z,26.70
2019-06-27T11:05:56.213Z,26.80
2019-06-27T11:08:28.666Z,26.70
2019-06-27T11:10:58.818Z,26.80
2019-06-27T11:13:28.846Z,26.80
2019-06-27T11:15:58.694Z,26.60
2019-06-27T11:18:28.587Z,27.20
2019-06-27T11:20:58.231Z,27.30
2019-06-27T11:23:28.362Z,27.30
2019-06-27T11:25:58.006Z,27.50
2019-06-27T11:28:27.784Z,27.30
2019-06-27T11:30:57.787Z,26.80
2019-06-27T11:33:32.370Z,26.10
2019-06-27T11:35:59.189Z,26.00
2019-06-27T11:38:29.096Z,26.50
2019-06-27T11:40:59.048Z,26.70
2019-06-27T11:43:29.059Z,26.30
2019-06-27T11:45:58.872Z,25.80
2019-06-27T11:48:28.882Z,25.70
2019-06-27T11:50:59.772Z,26.20
2019-06-27T11:53:29.613Z,26.20
2019-06-27T11:55:59.420Z,26.00
2019-06-27T11:58:29.047Z,26.40
2019-06-27T12:00:59.078Z,25.80
2019-06-27T12:03:29.076Z,25.20
2019-06-27T12:05:58.704Z,25.60
2019-06-27T12:08:28.713Z,25.70
2019-06-27T12:10:58.568Z,25.60
2019-06-27T12:13:28.743Z,25.40
2019-06-27T12:15:58.573Z,25.30
2019-06-27T12:18:28.231Z,25.10
2019-06-27T12:20:58.184Z,25.10
2019-06-27T12:23:28.295Z,24.70
2019-06-27T12:25:58.315Z,24.60
2019-06-27T12:28:27.960Z,24.50
2019-06-27T12:30:57.779Z,24.80
2019-06-27T12:33:27.748Z,25.20
2019-06-27T12:35:57.773Z,25.70
2019-06-27T12:38:27.697Z,25.80
2019-06-27T12:40:57.745Z,25.70
2019-06-27T12:43:27.605Z,25.30
2019-06-27T12:45:57.657Z,25.20
2019-06-27T12:48:27.644Z,24.90
2019-06-27T12:50:59.239Z,25.10
2019-06-27T12:53:31.176Z,25.00
2019-06-27T12:56:00.979Z,25.10
2019-06-27T12:58:31.164Z,25.30
2019-06-27T13:01:00.979Z,25.10
2019-06-27T13:03:31.385Z,25.00
2019-06-27T13:06:01.660Z,24.70
2019-06-27T13:08:31.606Z,24.80
2019-06-27T13:11:01.676Z,24.60
2019-06-27T13:13:31.827Z,24.30
2019-06-27T13:16:01.899Z,24.10
2019-06-27T13:18:32.072Z,24.10
2019-06-27T13:21:01.774Z,24.00
2019-06-27T13:23:31.907Z,24.10
2019-06-27T13:26:01.930Z,24.00
2019-06-27T13:28:32.028Z,23.70
2019-06-27T13:31:01.827Z,23.60
2019-06-27T13:33:31.527Z,23.40
2019-06-27T13:36:01.163Z,23.30
2019-06-27T13:38:31.164Z,23.20
2019-06-27T13:41:02.335Z,23.20
2019-06-27T13:43:32.652Z,23.60
2019-06-27T13:46:02.574Z,23.80
2019-06-27T13:48:32.711Z,24.00
2019-06-27T13:51:02.330Z,24.10
2019-06-27T13:53:33.129Z,23.60
2019-06-27T13:56:03.250Z,23.40
2019-06-27T13:58:33.475Z,23.30
2019-06-27T14:01:03.491Z,23.30
2019-06-27T14:03:48.084Z,23.30
2019-06-27T14:06:05.044Z,23.30
2019-06-27T14:08:35.285Z,23.40
2019-06-27T14:11:05.198Z,23.50
2019-06-27T14:13:35.090Z,23.70
2019-06-27T14:16:06.069Z,23.80
2019-06-27T14:18:36.157Z,23.80
2019-06-27T14:21:05.972Z,23.80
2019-06-27T14:23:36.010Z,23.70
2019-06-27T14:26:05.715Z,23.70
2019-06-27T14:28:35.400Z,23.50
2019-06-27T14:31:05.546Z,23.30
2019-06-27T14:33:35.338Z,23.20
2019-06-27T14:36:05.536Z,23.20
2019-06-27T14:38:35.488Z,23.30
2019-06-27T14:41:05.309Z,23.50
2019-06-27T14:43:37.830Z,23.50
2019-06-27T14:46:06.368Z,23.50
2019-06-27T14:48:36.396Z,23.70
2019-06-27T14:51:08.998Z,23.60
2019-06-27T14:53:39.265Z,23.30
2019-06-27T14:56:09.060Z,23.20
2019-06-27T14:58:39.162Z,23.00
2019-06-27T15:01:09.955Z,22.80
2019-06-27T15:03:40.167Z,22.80
2019-06-27T15:06:12.520Z,23.10
2019-06-27T15:08:41.640Z,23.50
2019-06-27T15:11:11.427Z,23.80
2019-06-27T15:13:41.057Z,23.70
2019-06-27T15:16:12.495Z,23.80
2019-06-27T15:18:42.621Z,23.80
2019-06-27T15:21:12.406Z,23.80
2019-06-27T15:23:42.231Z,23.60
2019-06-27T15:26:11.852Z,23.40
2019-06-27T15:28:41.579Z,23.10
2019-06-27T15:31:11.843Z,23.30
2019-06-27T15:33:41.944Z,23.40
2019-06-27T15:36:11.842Z,23.20
2019-06-27T15:38:41.798Z,23.00
2019-06-27T15:41:11.764Z,22.90
2019-06-27T15:43:44.098Z,22.70
2019-06-27T15:46:14.260Z,22.50
2019-06-27T15:48:44.247Z,22.60
2019-06-27T15:51:19.566Z,22.60
2019-06-27T15:53:54.297Z,22.50
2019-06-27T15:56:24.125Z,22.40
2019-06-27T15:58:53.927Z,22.40
2019-06-27T16:01:23.589Z,22.50
2019-06-27T16:03:53.510Z,22.50
2019-06-27T16:06:23.507Z,22.60
2019-06-27T16:08:53.510Z,22.50
2019-06-27T16:11:23.338Z,22.40
2019-06-27T16:13:53.548Z,22.20
2019-06-27T16:16:23.579Z,22.10
2019-06-27T16:18:53.229Z,22.00
2019-06-27T16:21:23.300Z,21.90
2019-06-27T16:23:53.335Z,21.90
2019-06-27T16:26:23.454Z,21.70
2019-06-27T16:28:53.241Z,21.60
2019-06-27T16:31:23.053Z,21.50
2019-06-27T16:33:53.199Z,21.50
2019-06-27T16:36:25.889Z,21.50
2019-06-27T16:38:54.561Z,21.40
2019-06-27T16:41:24.568Z,21.40
2019-06-27T16:43:54.604Z,21.50
2019-06-27T16:46:24.375Z,21.40
2019-06-27T16:48:54.310Z,21.40
2019-06-27T16:51:24.838Z,21.50
2019-06-27T16:53:54.878Z,21.50
2019-06-27T16:56:24.971Z,21.50
2019-06-27T16:58:54.992Z,21.40
2019-06-27T17:01:25.012Z,21.30
2019-06-27T17:03:55.035Z,21.20
2019-06-27T17:06:40.465Z,21.10
2019-06-27T17:08:56.532Z,21.10
2019-06-27T17:11:26.433Z,21.20
2019-06-27T17:13:56.546Z,21.20
2019-06-27T17:16:26.683Z,21.20
2019-06-27T17:18:56.558Z,21.10
2019-06-27T17:21:26.386Z,21.00
2019-06-27T17:23:56.110Z,20.90
2019-06-27T17:26:26.131Z,20.80
2019-06-27T17:28:55.898Z,20.70
2019-06-27T17:31:31.856Z,20.80
2019-06-27T17:34:06.136Z,20.80
2019-06-27T17:36:35.920Z,20.80
2019-06-27T17:39:06.533Z,20.90
2019-06-27T17:41:38.803Z,21.00
2019-06-27T17:44:11.396Z,20.90
2019-06-27T17:46:41.459Z,20.80
2019-06-27T17:49:16.335Z,20.80
2019-06-27T17:51:46.386Z,20.70
2019-06-27T17:54:16.098Z,20.70
2019-06-27T17:56:45.760Z,20.70
2019-06-27T17:59:15.846Z,20.60
2019-06-27T18:01:45.578Z,20.60
2019-06-27T18:04:15.646Z,20.50
2019-06-27T18:06:45.770Z,20.40
2019-06-27T18:09:16.058Z,20.50
2019-06-27T18:11:45.973Z,20.30
2019-06-27T18:14:16.002Z,20.30
2019-06-27T18:16:46.180Z,20.20
2019-06-27T18:19:16.252Z,20.10
2019-06-27T18:21:46.137Z,20.00
2019-06-27T18:24:16.290Z,20.00
2019-06-27T18:26:46.119Z,19.90
2019-06-27T18:29:16.009Z,19.90
2019-06-27T18:31:46.047Z,19.90
2019-06-27T18:34:16.252Z,19.90
2019-06-27T18:36:46.279Z,19.80
2019-06-27T18:39:18.830Z,19.90
2019-06-27T18:41:49.014Z,19.80
2019-06-27T18:44:19.887Z,19.70
2019-06-27T18:46:50.027Z,19.70
2019-06-27T18:49:21.624Z,19.70
2019-06-27T18:51:51.608Z,19.70
2019-06-27T18:54:21.314Z,19.60
2019-06-27T18:56:52.062Z,19.60
2019-06-27T18:59:23.373Z,19.60
2019-06-27T19:01:56.145Z,19.60
2019-06-27T19:04:26.210Z,19.50
2019-06-27T19:06:58.125Z,19.40
2019-06-27T19:09:28.273Z,19.30
2019-06-27T19:11:58.200Z,19.30
2019-06-27T19:14:28.271Z,19.20
2019-06-27T19:16:58.156Z,19.20
2019-06-27T19:19:30.053Z,19.10
2019-06-27T19:22:24.488Z,19.10
2019-06-27T19:24:59.657Z,19.10
2019-06-27T19:27:29.754Z,19.00
2019-06-27T19:30:02.464Z,18.90
2019-06-27T19:32:32.445Z,18.90
2019-06-27T19:35:02.416Z,18.80
2019-06-27T19:37:32.293Z,18.70
2019-06-27T19:40:02.167Z,18.70
2019-06-27T19:42:32.232Z,18.70
2019-06-27T19:45:09.300Z,18.70
2019-06-27T19:47:39.025Z,18.60
2019-06-27T19:50:10.300Z,18.70
2019-06-27T19:52:40.465Z,18.70
2019-06-27T19:55:15.002Z,18.70
2019-06-27T19:57:47.938Z,18.60
2019-06-27T20:00:20.534Z,18.50
2019-06-27T20:02:57.767Z,18.40
2019-06-27T20:05:27.802Z,18.30
2019-06-27T20:07:57.770Z,18.30
2019-06-27T20:10:36.387Z,18.30
2019-06-27T20:13:09.683Z,18.20
2019-06-27T20:15:39.693Z,18.20
2019-06-27T20:18:09.861Z,18.10
2019-06-27T20:20:41.428Z,18.10
2019-06-27T20:23:13.359Z,18.00
2019-06-27T20:25:43.388Z,18.00
2019-06-27T20:28:13.471Z,17.90
2019-06-27T20:30:43.395Z,17.90
2019-06-27T20:33:13.487Z,17.80
2019-06-27T20:35:43.534Z,17.80
2019-06-27T20:38:13.331Z,17.70
2019-06-27T20:41:04.269Z,17.70
2019-06-27T20:43:34.260Z,17.60
2019-06-27T20:46:05.206Z,17.60
2019-06-27T20:48:35.195Z,17.60
2019-06-27T20:51:16.633Z,17.50
2019-06-27T20:53:46.875Z,17.40
2019-06-27T20:56:16.850Z,17.40
2019-06-27T20:58:46.790Z,17.30
2019-06-27T21:01:16.625Z,17.30
2019-06-27T21:03:46.314Z,17.10
2019-06-27T21:06:17.976Z,17.10
2019-06-27T21:08:51.570Z,17.00
2019-06-27T21:11:21.997Z,17.00
2019-06-27T21:13:51.950Z,16.90
2019-06-27T21:16:22.041Z,16.90
2019-06-27T21:18:52.621Z,16.80
2019-06-27T21:21:22.795Z,16.80
2019-06-27T21:23:52.811Z,16.70
2019-06-27T21:26:25.239Z,16.70
2019-06-27T21:28:55.324Z,16.60
2019-06-27T21:31:25.947Z,16.60
2019-06-27T21:33:58.681Z,16.50
2019-06-27T21:36:31.209Z,16.50
2019-06-27T21:39:07.432Z,16.50
2019-06-27T21:41:33.059Z,16.40
2019-06-27T21:44:16.908Z,16.40
2019-06-27T21:46:50.026Z,16.40
2019-06-27T21:49:19.991Z,16.30
2019-06-27T21:51:51.517Z,16.30
2019-06-27T21:54:23.041Z,16.20
2019-06-27T21:56:52.701Z,16.30
2019-06-27T21:59:22.801Z,16.20
2019-06-27T22:01:52.942Z,16.20
2019-06-27T22:04:22.826Z,16.20
2019-06-27T22:06:54.677Z,16.30
2019-06-27T22:09:25.554Z,16.30
2019-06-27T22:11:55.502Z,16.20
2019-06-27T22:14:25.579Z,16.20
2019-06-27T22:16:55.219Z,16.20
2019-06-27T22:19:25.318Z,16.10
2019-06-27T22:21:55.462Z,16.10
2019-06-27T22:24:25.352Z,16.10
2019-06-27T22:26:55.239Z,16.10
2019-06-27T22:29:25.084Z,16.00
2019-06-27T22:32:00.451Z,16.00
2019-06-27T22:34:30.453Z,16.10
2019-06-27T22:37:03.599Z,15.90
2019-06-27T22:39:51.921Z,16.00
2019-06-27T22:42:39.534Z,15.90
2019-06-27T22:45:27.801Z,15.90
2019-06-27T22:48:14.632Z,15.90
2019-06-27T22:51:10.844Z,15.80
2019-06-27T22:53:58.110Z,15.80
2019-06-27T22:56:28.223Z,15.70
2019-06-27T22:58:58.339Z,15.70
2019-06-27T23:01:28.383Z,15.70
2019-06-27T23:04:03.379Z,15.70
2019-06-27T23:06:33.513Z,15.70
2019-06-27T23:09:03.425Z,15.60
2019-06-27T23:11:33.606Z,15.60
2019-06-27T23:14:03.576Z,15.50
2019-06-27T23:16:33.404Z,15.50
2019-06-27T23:19:03.072Z,15.50
2019-06-27T23:21:33.001Z,15.50
2019-06-27T23:24:03.026Z,15.50
2019-06-27T23:26:32.924Z,15.40
2019-06-27T23:29:03.090Z,15.40
2019-06-27T23:31:32.852Z,15.30
2019-06-27T23:34:03.009Z,15.30
2019-06-27T23:36:33.008Z,15.30
2019-06-27T23:39:04.121Z,15.20
2019-06-27T23:41:33.828Z,15.20
2019-06-27T23:44:03.559Z,15.20
2019-06-27T23:46:40.575Z,15.10
2019-06-27T23:49:10.875Z,15.10
2019-06-27T23:51:41.124Z,15.00
2019-06-27T23:54:11.029Z,14.90
2019-06-27T23:56:40.819Z,15.00
2019-06-27T23:59:10.439Z,15.00
